createdAt,value
2024-02-17T00:00:24.993Z,1.20
2024-02-17T00:02:52.065Z,1.53
2024-02-17T00:05:19.258Z,1.63
2024-02-17T00:07:46.375Z,1.93
2024-02-17T00:10:13.528Z,1.10
2024-02-17T00:12:42.123Z,1.30
2024-02-17T00:15:09.808Z,1.50
2024-02-17T00:17:38.153Z,1.50
2024-02-17T00:20:06.557Z,1.33
2024-02-17T00:22:33.976Z,1.50
2024-02-17T00:25:01.114Z,1.80
2024-02-17T00:27:28.217Z,1.60
2024-02-17T00:29:55.341Z,1.77
2024-02-17T00:32:22.457Z,1.50
2024-02-17T00:34:49.628Z,1.80
2024-02-17T00:37:16.788Z,1.57
2024-02-17T00:39:43.872Z,1.40
2024-02-17T00:42:11.123Z,1.60
2024-02-17T00:44:38.817Z,1.60
2024-02-17T00:47:05.913Z,1.57
2024-02-17T00:49:33.075Z,1.53
2024-02-17T00:52:00.300Z,1.77
2024-02-17T00:54:27.429Z,1.53
2024-02-17T00:56:54.536Z,1.77
2024-02-17T00:59:21.733Z,1.37
2024-02-17T01:01:50.548Z,1.70
2024-02-17T01:04:18.636Z,1.70
2024-02-17T01:06:45.922Z,1.53
2024-02-17T01:09:13.218Z,1.37
2024-02-17T01:11:40.579Z,1.50
2024-02-17T01:14:07.672Z,1.50
2024-02-17T01:16:34.838Z,1.60
2024-02-17T01:19:02.085Z,1.40
2024-02-17T01:21:32.256Z,1.60
2024-02-17T01:23:59.752Z,1.43
2024-02-17T01:26:30.477Z,1.70
2024-02-17T01:28:57.503Z,1.50
2024-02-17T01:31:24.507Z,1.40
2024-02-17T01:33:52.594Z,1.53
2024-02-17T01:36:21.136Z,1.20
2024-02-17T01:38:48.525Z,1.33
2024-02-17T01:41:15.903Z,1.30
2024-02-17T01:43:42.910Z,1.40
2024-02-17T01:46:10.679Z,1.27
2024-02-17T01:48:38.347Z,1.17
2024-02-17T01:51:08.295Z,1.20
2024-02-17T01:53:35.406Z,1.07
2024-02-17T01:56:02.989Z,1.30
2024-02-17T01:58:30.272Z,1.07
2024-02-17T02:00:58.790Z,1.60
2024-02-17T02:03:26.108Z,1.30
2024-02-17T02:05:53.512Z,1.20
2024-02-17T02:08:20.816Z,1.30
2024-02-17T02:10:48.069Z,1.30
2024-02-17T02:13:15.239Z,1.30
2024-02-17T02:15:53.766Z,1.50
2024-02-17T02:18:22.946Z,1.00
2024-02-17T02:20:50.814Z,1.30
2024-02-17T02:23:18.436Z,1.17
2024-02-17T02:25:55.577Z,1.23
2024-02-17T02:28:23.693Z,1.00
2024-02-17T02:30:54.119Z,1.03
2024-02-17T02:33:21.383Z,1.23
2024-02-17T02:35:48.634Z,1.27
2024-02-17T02:38:16.008Z,1.23
2024-02-17T02:40:43.054Z,1.07
2024-02-17T02:43:10.135Z,1.00
2024-02-17T02:45:38.783Z,1.10
2024-02-17T02:48:06.948Z,1.30
2024-02-17T02:50:34.082Z,0.90
2024-02-17T02:53:01.278Z,1.50
2024-02-17T02:55:28.384Z,1.10
2024-02-17T02:57:55.441Z,1.40
2024-02-17T03:00:22.668Z,1.70
2024-02-17T03:02:50.340Z,1.43
2024-02-17T03:05:17.823Z,1.40
2024-02-17T03:07:44.994Z,1.20
2024-02-17T03:10:12.484Z,1.10
2024-02-17T03:12:39.753Z,1.13
2024-02-17T03:15:07.668Z,1.13
2024-02-17T03:17:34.785Z,1.20
2024-02-17T03:20:02.176Z,0.90
2024-02-17T03:22:30.353Z,1.13
2024-02-17T03:24:57.628Z,1.20
2024-02-17T03:27:24.887Z,1.07
2024-02-17T03:29:51.973Z,1.40
2024-02-17T03:32:19.373Z,1.20
2024-02-17T03:34:46.764Z,1.17
2024-02-17T03:37:14.025Z,1.00
2024-02-17T03:39:41.178Z,0.90
2024-02-17T03:42:08.484Z,1.13
2024-02-17T03:44:35.540Z,1.23
2024-02-17T03:47:03.087Z,1.23
2024-02-17T03:49:30.368Z,1.40
2024-02-17T03:51:57.612Z,1.30
2024-02-17T03:54:24.873Z,1.47
2024-02-17T03:56:52.069Z,1.07
2024-02-17T03:59:19.106Z,1.40
2024-02-17T04:01:46.201Z,1.10
2024-02-17T04:04:13.591Z,1.37
2024-02-17T04:06:41.043Z,0.90
2024-02-17T04:09:08.447Z,1.30
2024-02-17T04:11:35.722Z,1.07
2024-02-17T04:14:02.912Z,1.27
2024-02-17T04:16:30.079Z,1.47
2024-02-17T04:18:57.295Z,1.10
2024-02-17T04:21:24.546Z,1.07
2024-02-17T04:23:51.710Z,1.00
2024-02-17T04:26:19.283Z,1.20
2024-02-17T04:28:47.899Z,1.50
2024-02-17T04:31:15.185Z,1.27
2024-02-17T04:33:42.622Z,1.17
2024-02-17T04:36:10.442Z,1.80
2024-02-17T04:38:37.690Z,1.40
2024-02-17T04:41:04.919Z,1.03
2024-02-17T04:43:32.032Z,1.10
2024-02-17T04:45:59.229Z,1.30
2024-02-17T04:48:26.604Z,1.00
2024-02-17T04:50:53.685Z,1.20
2024-02-17T04:53:20.843Z,1.23
2024-02-17T04:55:47.993Z,1.20
2024-02-17T04:58:18.856Z,1.33
2024-02-17T05:00:49.650Z,1.20
2024-02-17T05:03:17.816Z,1.10
2024-02-17T05:05:45.581Z,1.00
2024-02-17T05:08:12.858Z,1.30
2024-02-17T05:10:42.657Z,1.10
2024-02-17T05:13:09.876Z,1.20
2024-02-17T05:15:37.196Z,1.40
2024-02-17T05:18:04.804Z,1.20
2024-02-17T05:20:32.260Z,0.90
2024-02-17T05:22:59.747Z,1.10
2024-02-17T05:25:27.020Z,1.23
2024-02-17T05:27:54.372Z,1.00
2024-02-17T05:30:21.906Z,1.10
2024-02-17T05:32:49.999Z,1.17
2024-02-17T05:35:17.395Z,1.40
2024-02-17T05:37:44.745Z,1.23
2024-02-17T05:40:13.753Z,1.50
2024-02-17T05:42:41.628Z,1.00
2024-02-17T05:45:10.967Z,1.47
2024-02-17T05:47:38.250Z,1.57
2024-02-17T05:50:06.321Z,1.30
2024-02-17T05:52:34.275Z,1.50
2024-02-17T05:55:02.755Z,1.70
2024-02-17T05:57:30.056Z,1.97
2024-02-17T05:59:58.387Z,1.90
2024-02-17T06:02:25.622Z,2.00
2024-02-17T06:04:52.698Z,1.70
2024-02-17T06:07:21.747Z,1.47
2024-02-17T06:09:49.196Z,1.33
2024-02-17T06:12:16.560Z,1.40
2024-02-17T06:14:43.712Z,1.70
2024-02-17T06:17:11.755Z,1.40
2024-02-17T06:19:57.611Z,1.80
2024-02-17T06:22:24.743Z,1.53
2024-02-17T06:24:51.992Z,1.70
2024-02-17T06:27:19.176Z,1.63
2024-02-17T06:29:46.494Z,2.07
2024-02-17T06:32:14.230Z,1.50
2024-02-17T06:34:42.885Z,1.67
2024-02-17T06:37:09.991Z,1.43
2024-02-17T06:39:37.241Z,1.60
2024-02-17T06:42:04.668Z,1.53
2024-02-17T06:44:31.925Z,2.00
2024-02-17T06:47:00.262Z,2.00
2024-02-17T06:49:27.621Z,1.60
2024-02-17T06:51:55.987Z,1.37
2024-02-17T06:54:23.598Z,1.70
2024-02-17T06:56:50.768Z,1.60
2024-02-17T06:59:17.813Z,1.70
2024-02-17T07:01:44.986Z,1.30
2024-02-17T07:04:12.203Z,1.60
2024-02-17T07:09:07.579Z,1.57
2024-02-17T07:11:35.374Z,1.80
2024-02-17T07:14:03.406Z,1.90
2024-02-17T07:16:30.631Z,1.80
2024-02-17T07:19:00.618Z,2.10
2024-02-17T07:21:28.292Z,1.30
2024-02-17T07:23:55.493Z,1.93
2024-02-17T07:26:22.629Z,1.60
2024-02-17T07:28:49.983Z,1.97
2024-02-17T07:31:18.437Z,1.93
2024-02-17T07:33:48.207Z,1.77
2024-02-17T07:36:15.503Z,1.87
2024-02-17T07:38:42.746Z,2.20
2024-02-17T07:41:09.799Z,1.60
2024-02-17T07:43:36.799Z,1.73
2024-02-17T07:46:04.017Z,1.50
2024-02-17T07:48:32.173Z,1.80
2024-02-17T07:50:59.752Z,1.90
2024-02-17T07:53:28.709Z,1.40
2024-02-17T07:55:56.011Z,1.97
2024-02-17T07:58:24.546Z,1.87
2024-02-17T08:00:52.010Z,1.80
2024-02-17T08:03:19.714Z,1.87
2024-02-17T08:05:47.072Z,1.87
2024-02-17T08:08:14.252Z,1.60
2024-02-17T08:10:41.750Z,1.60
2024-02-17T08:13:09.177Z,1.80
2024-02-17T08:15:36.268Z,1.87
2024-02-17T08:18:03.930Z,1.50
2024-02-17T08:20:31.631Z,1.80
2024-02-17T08:22:59.044Z,1.50
2024-02-17T08:25:27.260Z,1.40
2024-02-17T08:27:54.724Z,1.50
2024-02-17T08:30:22.003Z,1.63
2024-02-17T08:32:49.320Z,1.67
2024-02-17T08:35:16.726Z,1.90
2024-02-17T08:37:44.166Z,1.50
2024-02-17T08:40:11.970Z,2.57
2024-02-17T08:42:39.120Z,2.70
2024-02-17T08:45:07.267Z,2.90
2024-02-17T08:47:35.130Z,4.40
2024-02-17T08:50:02.384Z,2.80
2024-02-17T08:52:29.616Z,2.00
2024-02-17T08:54:56.752Z,1.70
2024-02-17T08:57:23.825Z,1.87
2024-02-17T08:59:50.892Z,1.67
2024-02-17T09:02:20.381Z,1.50
2024-02-17T09:04:48.469Z,1.70
2024-02-17T09:07:15.974Z,2.10
2024-02-17T09:09:43.154Z,1.80
2024-02-17T09:12:10.399Z,1.70
2024-02-17T09:14:37.541Z,2.13
2024-02-17T09:17:05.785Z,1.90
2024-02-17T09:19:33.619Z,1.70
2024-02-17T09:22:00.876Z,1.30
2024-02-17T09:24:29.077Z,1.50
2024-02-17T09:26:56.571Z,1.70
2024-02-17T09:29:23.666Z,1.60
2024-02-17T09:31:50.794Z,1.67
2024-02-17T09:34:18.011Z,1.53
2024-02-17T09:36:45.645Z,1.37
2024-02-17T09:39:12.825Z,1.70
2024-02-17T09:41:40.044Z,1.77
2024-02-17T09:44:08.337Z,2.10
2024-02-17T09:46:37.214Z,2.00
2024-02-17T09:49:06.097Z,1.80
2024-02-17T09:51:34.467Z,1.77
2024-02-17T09:54:01.789Z,1.80
2024-02-17T09:56:28.928Z,2.27
2024-02-17T09:58:55.967Z,2.37
2024-02-17T10:01:28.247Z,2.20
2024-02-17T10:03:55.976Z,3.17
2024-02-17T10:06:23.560Z,3.27
2024-02-17T10:08:51.058Z,2.60
2024-02-17T10:11:18.809Z,2.57
2024-02-17T10:14:01.882Z,3.10
2024-02-17T10:16:33.805Z,4.03
2024-02-17T10:19:05.726Z,2.90
2024-02-17T10:21:32.981Z,3.17
2024-02-17T10:24:03.696Z,2.87
2024-02-17T10:26:30.767Z,3.43
2024-02-17T10:28:59.425Z,4.50
2024-02-17T10:31:28.504Z,4.20
2024-02-17T10:33:55.960Z,3.33
2024-02-17T10:36:24.679Z,3.17
2024-02-17T10:38:52.890Z,2.83
2024-02-17T10:41:21.260Z,3.03
2024-02-17T10:43:49.301Z,3.30
2024-02-17T10:46:27.719Z,3.90
2024-02-17T10:49:31.456Z,4.00
2024-02-17T10:52:09.483Z,3.23
2024-02-17T10:55:05.596Z,3.80
2024-02-17T10:57:41.391Z,4.27
2024-02-17T11:00:10.843Z,4.40
2024-02-17T11:02:38.819Z,4.57
2024-02-17T11:05:07.137Z,4.63
2024-02-17T11:07:34.752Z,3.87
2024-02-17T11:10:07.180Z,3.87
2024-02-17T11:12:36.583Z,3.10
2024-02-17T11:15:10.369Z,3.40
2024-02-17T11:17:52.142Z,3.53
2024-02-17T11:20:20.790Z,3.23
2024-02-17T11:22:59.768Z,3.70
2024-02-17T11:25:31.465Z,3.73
2024-02-17T11:28:00.358Z,3.50
2024-02-17T11:30:35.241Z,3.73
2024-02-17T11:33:05.742Z,3.20
2024-02-17T11:35:34.268Z,3.40
2024-02-17T11:38:02.213Z,3.30
2024-02-17T11:40:29.817Z,3.40
2024-02-17T11:42:57.310Z,2.90
2024-02-17T11:45:27.418Z,3.33
2024-02-17T11:47:54.942Z,3.17
2024-02-17T11:50:22.319Z,3.13
2024-02-17T11:52:50.870Z,2.70
2024-02-17T11:55:18.555Z,2.73
2024-02-17T11:57:47.072Z,2.53
2024-02-17T12:00:17.675Z,2.70
2024-02-17T12:02:49.361Z,2.43
2024-02-17T12:05:18.577Z,2.53
2024-02-17T12:07:45.799Z,2.40
2024-02-17T12:10:13.982Z,2.40
2024-02-17T12:12:42.262Z,2.57
2024-02-17T12:15:13.928Z,2.20
2024-02-17T12:17:45.926Z,2.40
2024-02-17T12:20:15.337Z,1.90
2024-02-17T12:22:46.273Z,1.90
2024-02-17T12:25:18.398Z,2.40
2024-02-17T12:27:48.761Z,2.10
2024-02-17T12:30:18.921Z,2.17
2024-02-17T12:32:47.197Z,1.90
2024-02-17T12:35:19.437Z,1.70
2024-02-17T12:37:48.983Z,2.13
2024-02-17T12:40:17.828Z,1.90
2024-02-17T12:42:46.184Z,2.03
2024-02-17T12:45:26.304Z,2.00
2024-02-17T12:47:53.878Z,2.37
2024-02-17T12:50:24.425Z,1.80
2024-02-17T12:52:52.816Z,2.67
2024-02-17T12:55:20.303Z,2.00
2024-02-17T12:57:47.548Z,2.10
2024-02-17T13:00:15.314Z,2.10
2024-02-17T13:02:42.510Z,2.53
2024-02-17T13:05:10.093Z,2.07
2024-02-17T13:07:39.067Z,2.30
2024-02-17T13:10:08.097Z,1.97
2024-02-17T13:12:35.414Z,1.87
2024-02-17T13:15:02.558Z,1.87
2024-02-17T13:17:29.708Z,2.17
2024-02-17T13:19:56.949Z,2.00
2024-02-17T13:22:24.431Z,1.83
2024-02-17T13:24:51.522Z,2.10
2024-02-17T13:27:18.676Z,1.60
2024-02-17T13:29:45.732Z,2.17
2024-02-17T13:32:12.771Z,2.00
2024-02-17T13:34:40.053Z,2.20
2024-02-17T13:37:07.296Z,2.07
2024-02-17T13:39:34.570Z,2.10
2024-02-17T13:42:02.138Z,2.47
2024-02-17T13:44:29.293Z,2.58
2024-02-17T13:46:56.654Z,2.20
2024-02-17T13:49:29.873Z,2.43
2024-02-17T13:51:58.318Z,2.27
2024-02-17T13:54:25.605Z,1.80
2024-02-17T13:56:52.838Z,1.60
2024-02-17T13:59:19.940Z,1.70
2024-02-17T14:01:47.180Z,1.70
2024-02-17T14:04:15.678Z,1.80
2024-02-17T14:06:42.778Z,1.60
2024-02-17T14:09:09.934Z,1.40
2024-02-17T14:11:37.226Z,1.30
2024-02-17T14:14:04.375Z,2.35
2024-02-17T14:16:31.469Z,1.33
2024-02-17T14:18:58.780Z,1.77
2024-02-17T14:21:26.377Z,1.50
2024-02-17T14:23:54.272Z,1.67
2024-02-17T14:26:21.547Z,1.57
2024-02-17T14:28:49.127Z,1.60
2024-02-17T14:31:17.519Z,1.40
2024-02-17T14:33:45.563Z,1.50
2024-02-17T14:36:13.008Z,1.48
2024-02-17T14:38:40.167Z,1.38
2024-02-17T14:41:07.620Z,1.50
2024-02-17T14:43:36.319Z,1.55
2024-02-17T14:46:03.873Z,1.55
2024-02-17T14:48:31.567Z,1.23
2024-02-17T14:50:59.278Z,1.48
2024-02-17T14:53:26.743Z,1.90
2024-02-17T14:55:53.888Z,1.42
2024-02-17T14:58:21.221Z,1.55
2024-02-17T15:00:48.507Z,1.55
2024-02-17T15:03:15.661Z,1.27
2024-02-17T15:05:42.928Z,1.40
2024-02-17T15:08:10.088Z,1.40
2024-02-17T15:10:37.523Z,1.10
2024-02-17T15:13:06.408Z,1.20
2024-02-17T15:15:33.678Z,1.10
2024-02-17T15:18:01.914Z,1.50
2024-02-17T15:20:29.052Z,1.38
2024-02-17T15:22:56.377Z,1.10
2024-02-17T15:25:24.628Z,1.15
2024-02-17T15:27:51.754Z,1.10
2024-02-17T15:30:19.262Z,1.13
2024-02-17T15:32:46.446Z,1.75
2024-02-17T15:35:13.794Z,3.67
2024-02-17T15:37:40.913Z,7.15
2024-02-17T15:40:08.751Z,2.10
2024-02-17T15:42:38.340Z,1.50
2024-02-17T15:45:06.088Z,1.40
2024-02-17T15:47:33.180Z,1.38
2024-02-17T15:50:00.331Z,3.00
2024-02-17T15:52:28.430Z,3.70
2024-02-17T15:54:55.547Z,4.40
2024-02-17T15:57:22.718Z,8.48
2024-02-17T15:59:51.255Z,7.10
2024-02-17T16:02:18.359Z,1.67
2024-02-17T16:04:45.772Z,1.70
2024-02-17T16:07:13.095Z,1.52
2024-02-17T16:09:40.444Z,1.35
2024-02-17T16:12:07.976Z,1.40
2024-02-17T16:14:39.511Z,2.08
2024-02-17T16:17:06.492Z,1.50
2024-02-17T16:19:33.764Z,1.17
2024-02-17T16:22:00.919Z,1.40
2024-02-17T16:24:28.623Z,1.20
2024-02-17T16:26:55.694Z,1.30
2024-02-17T16:29:22.746Z,1.30
2024-02-17T16:31:49.828Z,1.40
2024-02-17T16:34:17.368Z,1.63
2024-02-17T16:36:44.889Z,1.33
2024-02-17T16:39:12.493Z,1.05
2024-02-17T16:41:39.813Z,1.05
2024-02-17T16:44:07.510Z,1.33
2024-02-17T16:46:35.115Z,1.13
2024-02-17T16:49:02.380Z,1.10
2024-02-17T16:51:32.103Z,1.05
2024-02-17T16:54:00.672Z,1.10
2024-02-17T16:56:27.854Z,1.47
2024-02-17T16:58:54.862Z,1.10
2024-02-17T17:01:22.119Z,1.27
2024-02-17T17:03:49.738Z,1.53
2024-02-17T17:06:17.611Z,1.30
2024-02-17T17:08:45.822Z,1.30
2024-02-17T17:11:14.523Z,1.27
2024-02-17T17:13:41.768Z,1.10
2024-02-17T17:16:09.026Z,1.50
2024-02-17T17:18:36.827Z,1.00
2024-02-17T17:21:05.680Z,1.20
2024-02-17T17:23:33.007Z,1.90
2024-02-17T17:26:00.294Z,2.30
2024-02-17T17:28:27.480Z,3.70
2024-02-17T17:30:54.826Z,2.77
2024-02-17T17:33:22.229Z,2.50
2024-02-17T17:35:49.668Z,2.33
2024-02-17T17:38:16.780Z,1.90
2024-02-17T17:40:43.816Z,1.70
2024-02-17T17:43:11.540Z,1.93
2024-02-17T17:45:40.571Z,1.93
2024-02-17T17:48:08.187Z,3.30
2024-02-17T17:50:35.386Z,4.40
2024-02-17T17:53:02.465Z,5.00
2024-02-17T17:55:29.637Z,4.60
2024-02-17T17:57:56.951Z,4.83
2024-02-17T18:00:24.383Z,3.63
2024-02-17T18:02:53.744Z,3.53
2024-02-17T18:05:20.904Z,2.90
2024-02-17T18:07:48.463Z,2.00
2024-02-17T18:10:16.670Z,2.00
2024-02-17T18:12:43.953Z,1.80
2024-02-17T18:15:11.417Z,1.67
2024-02-17T18:17:38.734Z,1.40
2024-02-17T18:20:07.287Z,1.67
2024-02-17T18:22:34.401Z,2.10
2024-02-17T18:25:01.592Z,2.40
2024-02-17T18:27:28.937Z,3.13
2024-02-17T18:29:56.445Z,6.63
2024-02-17T18:32:24.570Z,2.70
2024-02-17T18:34:51.854Z,1.70
2024-02-17T18:37:19.028Z,1.90
2024-02-17T18:39:47.427Z,1.77
2024-02-17T18:42:14.765Z,2.83
2024-02-17T18:44:42.236Z,3.43
2024-02-17T18:47:09.565Z,2.17
2024-02-17T18:49:36.846Z,1.80
2024-02-17T18:52:05.829Z,2.73
2024-02-17T18:54:33.038Z,3.13
2024-02-17T18:57:00.281Z,2.70
2024-02-17T18:59:27.313Z,2.47
2024-02-17T19:01:54.461Z,2.27
2024-02-17T19:04:21.719Z,2.00
2024-02-17T19:06:49.126Z,2.00
2024-02-17T19:09:16.468Z,2.10
2024-02-17T19:11:43.688Z,2.30
2024-02-17T19:14:11.194Z,2.50
2024-02-17T19:16:38.265Z,2.37
2024-02-17T19:19:05.382Z,2.47
2024-02-17T19:21:32.732Z,2.47
2024-02-17T19:23:59.863Z,1.90
2024-02-17T19:26:26.900Z,2.30
2024-02-17T19:28:53.917Z,2.07
2024-02-17T19:31:21.066Z,3.30
2024-02-17T19:33:48.334Z,1.83
2024-02-17T19:36:16.459Z,1.60
2024-02-17T19:38:43.813Z,1.97
2024-02-17T19:41:12.137Z,1.83
2024-02-17T19:43:44.163Z,2.00
2024-02-17T19:46:13.217Z,2.70
2024-02-17T19:48:40.362Z,3.50
2024-02-17T19:51:07.528Z,2.20
2024-02-17T19:53:35.184Z,1.97
2024-02-17T19:56:02.494Z,2.27
2024-02-17T19:58:30.497Z,1.80
2024-02-17T20:00:58.457Z,1.63
2024-02-17T20:03:25.660Z,1.60
2024-02-17T20:05:52.790Z,1.40
2024-02-17T20:08:19.987Z,2.30
2024-02-17T20:10:48.306Z,3.20
2024-02-17T20:13:18.116Z,3.73
2024-02-17T20:15:45.287Z,3.80
2024-02-17T20:18:12.398Z,3.77
2024-02-17T20:20:39.529Z,3.20
2024-02-17T20:23:06.694Z,2.63
2024-02-17T20:25:33.816Z,2.20
2024-02-17T20:28:00.930Z,2.57
2024-02-17T20:30:28.092Z,3.17
2024-02-17T20:32:55.487Z,2.80
2024-02-17T20:35:22.934Z,3.20
2024-02-17T20:37:50.210Z,2.77
2024-02-17T20:40:17.256Z,2.43
2024-02-17T20:42:44.406Z,2.40
2024-02-17T20:45:11.565Z,2.10
2024-02-17T20:47:39.970Z,2.30
2024-02-17T20:50:08.385Z,2.90
2024-02-17T20:52:35.490Z,2.53
2024-02-17T20:55:02.678Z,3.10
2024-02-17T20:57:30.798Z,2.40
2024-02-17T20:59:57.880Z,2.80
2024-02-17T21:02:26.047Z,4.53
2024-02-17T21:04:54.924Z,3.10
2024-02-17T21:07:22.009Z,2.43
2024-02-17T21:09:50.987Z,2.23
2024-02-17T21:12:20.515Z,2.40
2024-02-17T21:14:50.255Z,2.40
2024-02-17T21:17:17.769Z,2.13
2024-02-17T21:19:45.480Z,2.50
2024-02-17T21:22:13.445Z,2.43
2024-02-17T21:24:40.930Z,1.90
2024-02-17T21:27:08.179Z,2.30
2024-02-17T21:29:35.343Z,2.60
2024-02-17T21:32:02.446Z,2.30
2024-02-17T21:34:29.697Z,5.60
2024-02-17T21:36:57.362Z,4.57
2024-02-17T21:39:24.520Z,3.00
2024-02-17T21:41:51.689Z,2.87
2024-02-17T21:44:18.770Z,2.10
2024-02-17T21:46:46.253Z,2.83
2024-02-17T21:49:13.470Z,2.20
2024-02-17T21:51:40.675Z,2.33
2024-02-17T21:54:07.808Z,2.27
2024-02-17T21:56:36.558Z,2.50
2024-02-17T21:59:03.816Z,2.20
2024-02-17T22:01:30.999Z,2.23
2024-02-17T22:03:58.242Z,1.90
2024-02-17T22:06:25.409Z,2.23
2024-02-17T22:08:52.548Z,2.30
2024-02-17T22:11:19.631Z,3.53
2024-02-17T22:13:47.100Z,2.57
2024-02-17T22:16:14.517Z,2.10
2024-02-17T22:18:41.621Z,1.83
2024-02-17T22:21:09.733Z,2.23
2024-02-17T22:23:36.973Z,2.07
2024-02-17T22:26:05.195Z,2.47
2024-02-17T22:28:33.616Z,2.70
2024-02-17T22:31:00.886Z,2.37
2024-02-17T22:33:28.835Z,2.13
2024-02-17T22:35:56.437Z,2.13
2024-02-17T22:38:23.580Z,2.40
2024-02-17T22:40:50.644Z,2.03
2024-02-17T22:43:17.720Z,2.27
2024-02-17T22:45:45.293Z,2.40
2024-02-17T22:48:12.588Z,1.67
2024-02-17T22:50:39.968Z,1.90
2024-02-17T22:53:10.275Z,1.80
2024-02-17T22:55:37.291Z,1.60
2024-02-17T22:58:05.119Z,1.80
2024-02-17T23:00:32.238Z,2.20
2024-02-17T23:02:59.301Z,2.37
2024-02-17T23:05:27.161Z,2.20
2024-02-17T23:07:55.138Z,2.57
2024-02-17T23:10:22.805Z,2.50
2024-02-17T23:12:50.039Z,2.17
2024-02-17T23:15:17.348Z,1.97
2024-02-17T23:17:44.806Z,1.57
2024-02-17T23:20:14.999Z,1.70
2024-02-17T23:22:43.459Z,1.40
2024-02-17T23:25:12.240Z,1.77
2024-02-17T23:27:41.333Z,1.40
2024-02-17T23:30:10.320Z,1.13
2024-02-17T23:32:38.638Z,1.60
2024-02-17T23:35:06.534Z,1.80
2024-02-17T23:37:34.551Z,1.70
2024-02-17T23:40:03.414Z,1.53
2024-02-17T23:42:30.893Z,1.53
2024-02-17T23:44:58.126Z,1.07
2024-02-17T23:47:25.507Z,1.43
2024-02-17T23:49:53.587Z,1.57
2024-02-17T23:52:21.223Z,2.53
2024-02-17T23:54:48.368Z,2.70
2024-02-17T23:57:15.456Z,1.90
2024-02-17T23:59:43.411Z,1.97
